sensor_id;sensor_type;location;lat;lon;timestamp;P1;durP1;ratioP1;P2;durP2;ratioP2
40745;SDS011;26454;51.164;4.488;2022-07-01T00:02:00;19.92;;;12.05;;
40745;SDS011;26454;51.164;4.488;2022-07-01T00:04:27;24.30;;;13.13;;
40745;SDS011;26454;51.164;4.488;2022-07-01T00:06:54;21.58;;;13.02;;
40745;SDS011;26454;51.164;4.488;2022-07-01T00:09:20;21.42;;;12.10;;
40745;SDS011;26454;51.164;4.488;2022-07-01T00:11:46;25.13;;;14.43;;
40745;SDS011;26454;51.164;4.488;2022-07-01T00:14:12;20.92;;;11.07;;
40745;SDS011;26454;51.164;4.488;2022-07-01T00:16:37;21.50;;;14.32;;
40745;SDS011;26454;51.164;4.488;2022-07-01T00:19:03;22.88;;;11.95;;
40745;SDS011;26454;51.164;4.488;2022-07-01T00:21:30;24.25;;;12.27;;
40745;SDS011;26454;51.164;4.488;2022-07-01T00:23:56;19.63;;;11.45;;
40745;SDS011;26454;51.164;4.488;2022-07-01T00:26:22;15.15;;;11.60;;
40745;SDS011;26454;51.164;4.488;2022-07-01T00:28:47;20.80;;;12.38;;
40745;SDS011;26454;51.164;4.488;2022-07-01T00:31:13;26.08;;;12.88;;
40745;SDS011;26454;51.164;4.488;2022-07-01T00:33:39;17.83;;;11.00;;
40745;SDS011;26454;51.164;4.488;2022-07-01T00:36:05;19.08;;;12.35;;
40745;SDS011;26454;51.164;4.488;2022-07-01T00:38:30;18.40;;;13.02;;
40745;SDS011;26454;51.164;4.488;2022-07-01T00:40:56;21.95;;;13.35;;
40745;SDS011;26454;51.164;4.488;2022-07-01T00:43:23;20.52;;;12.52;;
40745;SDS011;26454;51.164;4.488;2022-07-01T00:45:49;19.27;;;12.02;;
40745;SDS011;26454;51.164;4.488;2022-07-01T00:48:16;17.88;;;11.07;;
40745;SDS011;26454;51.164;4.488;2022-07-01T00:50:42;21.92;;;11.70;;
40745;SDS011;26454;51.164;4.488;2022-07-01T00:53:09;19.77;;;12.25;;
40745;SDS011;26454;51.164;4.488;2022-07-01T00:55:34;23.45;;;13.70;;
40745;SDS011;26454;51.164;4.488;2022-07-01T00:58:01;20.42;;;11.52;;
40745;SDS011;26454;51.164;4.488;2022-07-01T01:00:27;19.02;;;11.35;;
40745;SDS011;26454;51.164;4.488;2022-07-01T01:02:53;22.58;;;12.50;;
40745;SDS011;26454;51.164;4.488;2022-07-01T01:05:20;23.27;;;12.52;;
40745;SDS011;26454;51.164;4.488;2022-07-01T01:07:47;19.08;;;11.88;;
40745;SDS011;26454;51.164;4.488;2022-07-01T01:10:15;18.63;;;11.88;;
40745;SDS011;26454;51.164;4.488;2022-07-01T01:12:42;16.55;;;11.48;;
40745;SDS011;26454;51.164;4.488;2022-07-01T01:15:08;16.42;;;11.82;;
40745;SDS011;26454;51.164;4.488;2022-07-01T01:17:35;20.17;;;12.88;;
40745;SDS011;26454;51.164;4.488;2022-07-01T01:20:02;18.38;;;11.52;;
40745;SDS011;26454;51.164;4.488;2022-07-01T01:22:29;22.45;;;13.13;;
40745;SDS011;26454;51.164;4.488;2022-07-01T01:24:58;20.70;;;10.65;;
40745;SDS011;26454;51.164;4.488;2022-07-01T01:27:29;21.40;;;12.43;;
40745;SDS011;26454;51.164;4.488;2022-07-01T01:29:55;19.50;;;12.05;;
40745;SDS011;26454;51.164;4.488;2022-07-01T01:32:22;20.95;;;12.65;;
40745;SDS011;26454;51.164;4.488;2022-07-01T01:34:49;19.50;;;12.40;;
40745;SDS011;26454;51.164;4.488;2022-07-01T01:37:15;18.92;;;11.90;;
40745;SDS011;26454;51.164;4.488;2022-07-01T01:39:42;17.45;;;12.05;;
40745;SDS011;26454;51.164;4.488;2022-07-01T01:42:08;20.55;;;12.18;;
40745;SDS011;26454;51.164;4.488;2022-07-01T01:44:34;19.77;;;12.77;;
40745;SDS011;26454;51.164;4.488;2022-07-01T01:47:03;19.95;;;14.05;;
40745;SDS011;26454;51.164;4.488;2022-07-01T01:49:29;21.70;;;12.13;;
40745;SDS011;26454;51.164;4.488;2022-07-01T01:51:57;24.60;;;13.85;;
40745;SDS011;26454;51.164;4.488;2022-07-01T01:54:24;22.02;;;14.05;;
40745;SDS011;26454;51.164;4.488;2022-07-01T01:56:50;25.15;;;15.68;;
40745;SDS011;26454;51.164;4.488;2022-07-01T01:59:16;20.10;;;13.70;;
40745;SDS011;26454;51.164;4.488;2022-07-01T02:01:42;27.92;;;15.48;;
40745;SDS011;26454;51.164;4.488;2022-07-01T02:04:08;21.95;;;15.13;;
40745;SDS011;26454;51.164;4.488;2022-07-01T02:06:34;27.30;;;15.48;;
40745;SDS011;26454;51.164;4.488;2022-07-01T02:09:01;22.15;;;15.15;;
40745;SDS011;26454;51.164;4.488;2022-07-01T02:11:27;25.77;;;15.48;;
40745;SDS011;26454;51.164;4.488;2022-07-01T02:13:53;27.50;;;16.27;;
40745;SDS011;26454;51.164;4.488;2022-07-01T02:16:19;21.95;;;13.30;;
40745;SDS011;26454;51.164;4.488;2022-07-01T02:18:45;25.77;;;15.98;;
40745;SDS011;26454;51.164;4.488;2022-07-01T02:21:11;22.77;;;14.77;;
40745;SDS011;26454;51.164;4.488;2022-07-01T02:23:38;26.45;;;14.57;;
40745;SDS011;26454;51.164;4.488;2022-07-01T02:26:04;26.65;;;15.07;;
40745;SDS011;26454;51.164;4.488;2022-07-01T02:28:30;21.45;;;14.40;;
40745;SDS011;26454;51.164;4.488;2022-07-01T02:30:56;29.85;;;15.68;;
40745;SDS011;26454;51.164;4.488;2022-07-01T02:33:22;24.63;;;14.18;;
40745;SDS011;26454;51.164;4.488;2022-07-01T02:35:48;22.60;;;14.63;;
40745;SDS011;26454;51.164;4.488;2022-07-01T02:38:15;22.27;;;15.25;;
40745;SDS011;26454;51.164;4.488;2022-07-01T02:40:41;22.60;;;13.40;;
40745;SDS011;26454;51.164;4.488;2022-07-01T02:43:07;24.58;;;15.05;;
40745;SDS011;26454;51.164;4.488;2022-07-01T02:45:33;22.52;;;14.48;;
40745;SDS011;26454;51.164;4.488;2022-07-01T02:48:00;27.52;;;14.98;;
40745;SDS011;26454;51.164;4.488;2022-07-01T02:50:26;26.73;;;15.07;;
40745;SDS011;26454;51.164;4.488;2022-07-01T02:52:53;21.75;;;14.05;;
40745;SDS011;26454;51.164;4.488;2022-07-01T02:55:19;22.88;;;15.07;;
40745;SDS011;26454;51.164;4.488;2022-07-01T02:57:45;25.30;;;15.60;;
40745;SDS011;26454;51.164;4.488;2022-07-01T03:00:14;22.33;;;13.40;;
40745;SDS011;26454;51.164;4.488;2022-07-01T03:02:40;24.65;;;14.15;;
40745;SDS011;26454;51.164;4.488;2022-07-01T03:05:06;23.45;;;16.52;;
40745;SDS011;26454;51.164;4.488;2022-07-01T03:07:33;25.42;;;15.50;;
40745;SDS011;26454;51.164;4.488;2022-07-01T03:10:00;25.65;;;15.38;;
40745;SDS011;26454;51.164;4.488;2022-07-01T03:12:27;25.23;;;14.98;;
40745;SDS011;26454;51.164;4.488;2022-07-01T03:14:54;22.38;;;14.73;;
40745;SDS011;26454;51.164;4.488;2022-07-01T03:17:41;33.42;;;17.90;;
40745;SDS011;26454;51.164;4.488;2022-07-01T03:20:09;24.92;;;15.52;;
40745;SDS011;26454;51.164;4.488;2022-07-01T03:22:41;19.02;;;13.25;;
40745;SDS011;26454;51.164;4.488;2022-07-01T03:25:08;23.85;;;15.18;;
40745;SDS011;26454;51.164;4.488;2022-07-01T03:27:35;20.77;;;14.27;;
40745;SDS011;26454;51.164;4.488;2022-07-01T03:30:02;20.23;;;15.20;;
40745;SDS011;26454;51.164;4.488;2022-07-01T03:32:32;27.10;;;15.68;;
40745;SDS011;26454;51.164;4.488;2022-07-01T03:35:00;27.10;;;16.42;;
40745;SDS011;26454;51.164;4.488;2022-07-01T03:37:45;22.08;;;14.05;;
40745;SDS011;26454;51.164;4.488;2022-07-01T03:40:11;23.05;;;14.98;;
40745;SDS011;26454;51.164;4.488;2022-07-01T03:42:37;19.85;;;14.07;;
40745;SDS011;26454;51.164;4.488;2022-07-01T03:45:04;23.42;;;15.40;;
40745;SDS011;26454;51.164;4.488;2022-07-01T03:47:30;25.15;;;15.80;;
40745;SDS011;26454;51.164;4.488;2022-07-01T03:49:56;17.48;;;14.68;;
40745;SDS011;26454;51.164;4.488;2022-07-01T03:52:22;22.83;;;14.68;;
40745;SDS011;26454;51.164;4.488;2022-07-01T03:54:48;24.25;;;16.00;;
40745;SDS011;26454;51.164;4.488;2022-07-01T03:57:13;22.92;;;14.73;;
40745;SDS011;26454;51.164;4.488;2022-07-01T03:59:40;22.55;;;15.80;;
40745;SDS011;26454;51.164;4.488;2022-07-01T04:02:06;17.92;;;13.63;;
40745;SDS011;26454;51.164;4.488;2022-07-01T04:04:34;19.27;;;14.80;;
40745;SDS011;26454;51.164;4.488;2022-07-01T04:07:01;23.55;;;14.43;;
40745;SDS011;26454;51.164;4.488;2022-07-01T04:09:29;21.52;;;14.73;;
40745;SDS011;26454;51.164;4.488;2022-07-01T04:11:56;18.90;;;13.73;;
40745;SDS011;26454;51.164;4.488;2022-07-01T04:14:22;17.73;;;13.98;;
40745;SDS011;26454;51.164;4.488;2022-07-01T04:16:49;24.25;;;15.52;;
40745;SDS011;26454;51.164;4.488;2022-07-01T04:19:17;18.58;;;13.73;;
40745;SDS011;26454;51.164;4.488;2022-07-01T04:21:44;18.85;;;13.20;;
40745;SDS011;26454;51.164;4.488;2022-07-01T04:24:26;22.92;;;14.38;;
40745;SDS011;26454;51.164;4.488;2022-07-01T04:26:54;20.10;;;14.93;;
40745;SDS011;26454;51.164;4.488;2022-07-01T04:29:20;20.17;;;14.07;;
40745;SDS011;26454;51.164;4.488;2022-07-01T04:31:46;20.27;;;14.32;;
40745;SDS011;26454;51.164;4.488;2022-07-01T04:34:14;20.77;;;14.65;;
40745;SDS011;26454;51.164;4.488;2022-07-01T04:36:49;24.77;;;16.75;;
40745;SDS011;26454;51.164;4.488;2022-07-01T04:39:28;21.08;;;14.10;;
40745;SDS011;26454;51.164;4.488;2022-07-01T04:42:07;22.50;;;12.90;;
40745;SDS011;26454;51.164;4.488;2022-07-01T04:44:40;23.77;;;14.52;;
40745;SDS011;26454;51.164;4.488;2022-07-01T04:47:07;19.25;;;13.25;;
40745;SDS011;26454;51.164;4.488;2022-07-01T04:49:33;20.35;;;13.98;;
40745;SDS011;26454;51.164;4.488;2022-07-01T04:52:01;25.55;;;13.65;;
40745;SDS011;26454;51.164;4.488;2022-07-01T04:54:27;23.48;;;15.45;;
40745;SDS011;26454;51.164;4.488;2022-07-01T04:56:56;20.25;;;14.32;;
40745;SDS011;26454;51.164;4.488;2022-07-01T04:59:21;22.70;;;13.95;;
40745;SDS011;26454;51.164;4.488;2022-07-01T05:01:47;21.40;;;13.90;;
40745;SDS011;26454;51.164;4.488;2022-07-01T05:04:18;18.27;;;13.95;;
40745;SDS011;26454;51.164;4.488;2022-07-01T05:06:48;24.70;;;14.27;;
40745;SDS011;26454;51.164;4.488;2022-07-01T05:09:15;17.95;;;14.55;;
40745;SDS011;26454;51.164;4.488;2022-07-01T05:11:57;17.70;;;13.38;;
40745;SDS011;26454;51.164;4.488;2022-07-01T05:14:29;17.50;;;14.35;;
40745;SDS011;26454;51.164;4.488;2022-07-01T05:16:56;18.83;;;13.82;;
40745;SDS011;26454;51.164;4.488;2022-07-01T05:19:22;23.38;;;14.18;;
40745;SDS011;26454;51.164;4.488;2022-07-01T05:22:06;22.35;;;14.40;;
40745;SDS011;26454;51.164;4.488;2022-07-01T05:24:32;25.30;;;14.93;;
40745;SDS011;26454;51.164;4.488;2022-07-01T05:26:58;23.80;;;14.32;;
40745;SDS011;26454;51.164;4.488;2022-07-01T05:29:26;23.58;;;14.55;;
40745;SDS011;26454;51.164;4.488;2022-07-01T05:31:54;20.60;;;14.90;;
40745;SDS011;26454;51.164;4.488;2022-07-01T05:36:49;17.17;;;12.80;;
40745;SDS011;26454;51.164;4.488;2022-07-01T05:39:15;16.70;;;12.80;;
40745;SDS011;26454;51.164;4.488;2022-07-01T05:41:42;15.60;;;12.98;;
40745;SDS011;26454;51.164;4.488;2022-07-01T05:44:08;16.80;;;11.77;;
40745;SDS011;26454;51.164;4.488;2022-07-01T05:46:34;20.20;;;11.43;;
40745;SDS011;26454;51.164;4.488;2022-07-01T05:49:02;12.23;;;10.20;;
40745;SDS011;26454;51.164;4.488;2022-07-01T05:51:30;14.73;;;11.30;;
40745;SDS011;26454;51.164;4.488;2022-07-01T05:53:56;14.30;;;9.02;;
40745;SDS011;26454;51.164;4.488;2022-07-01T05:56:23;16.98;;;11.18;;
40745;SDS011;26454;51.164;4.488;2022-07-01T05:58:52;12.93;;;9.73;;
40745;SDS011;26454;51.164;4.488;2022-07-01T06:01:19;18.55;;;9.95;;
40745;SDS011;26454;51.164;4.488;2022-07-01T06:03:46;16.27;;;8.93;;
40745;SDS011;26454;51.164;4.488;2022-07-01T06:06:12;14.90;;;9.50;;
40745;SDS011;26454;51.164;4.488;2022-07-01T06:08:39;10.48;;;9.20;;
40745;SDS011;26454;51.164;4.488;2022-07-01T06:11:05;12.85;;;9.20;;
40745;SDS011;26454;51.164;4.488;2022-07-01T06:13:32;13.70;;;8.60;;
40745;SDS011;26454;51.164;4.488;2022-07-01T06:15:58;14.07;;;9.18;;
40745;SDS011;26454;51.164;4.488;2022-07-01T06:18:27;11.60;;;7.85;;
40745;SDS011;26454;51.164;4.488;2022-07-01T06:20:53;14.13;;;9.48;;
40745;SDS011;26454;51.164;4.488;2022-07-01T06:23:19;16.40;;;9.27;;
40745;SDS011;26454;51.164;4.488;2022-07-01T06:25:47;9.88;;;7.93;;
40745;SDS011;26454;51.164;4.488;2022-07-01T06:28:14;11.85;;;8.35;;
40745;SDS011;26454;51.164;4.488;2022-07-01T06:30:42;16.05;;;6.63;;
40745;SDS011;26454;51.164;4.488;2022-07-01T06:33:11;10.57;;;6.22;;
40745;SDS011;26454;51.164;4.488;2022-07-01T06:35:38;11.05;;;6.57;;
40745;SDS011;26454;51.164;4.488;2022-07-01T06:38:04;9.38;;;6.22;;
40745;SDS011;26454;51.164;4.488;2022-07-01T06:40:30;6.97;;;4.97;;
40745;SDS011;26454;51.164;4.488;2022-07-01T06:42:58;9.93;;;5.30;;
40745;SDS011;26454;51.164;4.488;2022-07-01T06:45:25;9.07;;;5.10;;
40745;SDS011;26454;51.164;4.488;2022-07-01T06:47:50;6.97;;;4.50;;
40745;SDS011;26454;51.164;4.488;2022-07-01T06:50:16;7.82;;;5.13;;
40745;SDS011;26454;51.164;4.488;2022-07-01T06:52:43;8.27;;;4.97;;
40745;SDS011;26454;51.164;4.488;2022-07-01T06:55:09;12.32;;;5.55;;
40745;SDS011;26454;51.164;4.488;2022-07-01T06:57:35;13.55;;;4.95;;
40745;SDS011;26454;51.164;4.488;2022-07-01T07:00:01;11.00;;;5.45;;
40745;SDS011;26454;51.164;4.488;2022-07-01T07:02:28;13.20;;;4.82;;
40745;SDS011;26454;51.164;4.488;2022-07-01T07:04:54;8.82;;;4.35;;
40745;SDS011;26454;51.164;4.488;2022-07-01T07:07:23;7.37;;;3.60;;
40745;SDS011;26454;51.164;4.488;2022-07-01T07:09:50;7.20;;;4.50;;
40745;SDS011;26454;51.164;4.488;2022-07-01T07:12:17;7.82;;;5.00;;
40745;SDS011;26454;51.164;4.488;2022-07-01T07:14:42;5.95;;;4.97;;
40745;SDS011;26454;51.164;4.488;2022-07-01T07:17:12;7.95;;;5.28;;
40745;SDS011;26454;51.164;4.488;2022-07-01T07:19:40;10.57;;;4.63;;
40745;SDS011;26454;51.164;4.488;2022-07-01T07:22:08;9.02;;;5.53;;
40745;SDS011;26454;51.164;4.488;2022-07-01T07:24:36;9.07;;;5.88;;
40745;SDS011;26454;51.164;4.488;2022-07-01T07:27:02;13.15;;;6.57;;
40745;SDS011;26454;51.164;4.488;2022-07-01T07:29:30;7.75;;;5.57;;
40745;SDS011;26454;51.164;4.488;2022-07-01T07:31:57;8.80;;;7.18;;
40745;SDS011;26454;51.164;4.488;2022-07-01T07:34:23;8.02;;;7.22;;
40745;SDS011;26454;51.164;4.488;2022-07-01T07:36:49;7.10;;;6.43;;
40745;SDS011;26454;51.164;4.488;2022-07-01T07:39:15;7.13;;;5.55;;
40745;SDS011;26454;51.164;4.488;2022-07-01T07:41:41;6.82;;;6.05;;
40745;SDS011;26454;51.164;4.488;2022-07-01T07:44:12;7.28;;;5.97;;
40745;SDS011;26454;51.164;4.488;2022-07-01T07:46:47;8.23;;;5.78;;
40745;SDS011;26454;51.164;4.488;2022-07-01T07:49:14;9.10;;;5.65;;
40745;SDS011;26454;51.164;4.488;2022-07-01T07:51:41;5.45;;;4.93;;
40745;SDS011;26454;51.164;4.488;2022-07-01T07:54:10;5.10;;;4.70;;
40745;SDS011;26454;51.164;4.488;2022-07-01T07:56:36;6.80;;;4.57;;
40745;SDS011;26454;51.164;4.488;2022-07-01T07:59:03;5.10;;;4.60;;
40745;SDS011;26454;51.164;4.488;2022-07-01T08:01:29;7.93;;;5.00;;
40745;SDS011;26454;51.164;4.488;2022-07-01T08:03:55;6.35;;;5.72;;
40745;SDS011;26454;51.164;4.488;2022-07-01T08:06:22;6.18;;;4.90;;
40745;SDS011;26454;51.164;4.488;2022-07-01T08:09:00;6.68;;;3.92;;
40745;SDS011;26454;51.164;4.488;2022-07-01T08:11:32;9.98;;;5.00;;
40745;SDS011;26454;51.164;4.488;2022-07-01T08:14:06;7.80;;;4.80;;
40745;SDS011;26454;51.164;4.488;2022-07-01T08:16:36;9.35;;;4.18;;
40745;SDS011;26454;51.164;4.488;2022-07-01T08:19:04;8.07;;;4.28;;
40745;SDS011;26454;51.164;4.488;2022-07-01T08:21:30;4.82;;;4.10;;
40745;SDS011;26454;51.164;4.488;2022-07-01T08:23:56;4.28;;;3.90;;
40745;SDS011;26454;51.164;4.488;2022-07-01T08:26:22;5.38;;;3.90;;
40745;SDS011;26454;51.164;4.488;2022-07-01T08:28:48;3.45;;;3.15;;
40745;SDS011;26454;51.164;4.488;2022-07-01T08:31:14;6.43;;;3.50;;
40745;SDS011;26454;51.164;4.488;2022-07-01T08:33:41;3.95;;;2.70;;
40745;SDS011;26454;51.164;4.488;2022-07-01T08:36:07;6.10;;;3.50;;
40745;SDS011;26454;51.164;4.488;2022-07-01T08:38:34;4.07;;;3.63;;
40745;SDS011;26454;51.164;4.488;2022-07-01T08:41:01;4.68;;;3.60;;
40745;SDS011;26454;51.164;4.488;2022-07-01T08:43:30;4.22;;;3.85;;
40745;SDS011;26454;51.164;4.488;2022-07-01T08:46:01;3.53;;;2.60;;
40745;SDS011;26454;51.164;4.488;2022-07-01T08:48:35;10.38;;;3.47;;
40745;SDS011;26454;51.164;4.488;2022-07-01T08:51:00;5.15;;;2.60;;
40745;SDS011;26454;51.164;4.488;2022-07-01T08:53:29;5.00;;;3.13;;
40745;SDS011;26454;51.164;4.488;2022-07-01T08:55:57;5.30;;;2.40;;
40745;SDS011;26454;51.164;4.488;2022-07-01T08:58:37;6.38;;;2.47;;
40745;SDS011;26454;51.164;4.488;2022-07-01T09:01:19;5.07;;;2.65;;
40745;SDS011;26454;51.164;4.488;2022-07-01T09:03:49;6.18;;;2.85;;
40745;SDS011;26454;51.164;4.488;2022-07-01T09:06:26;5.25;;;3.30;;
40745;SDS011;26454;51.164;4.488;2022-07-01T09:08:53;7.65;;;3.00;;
40745;SDS011;26454;51.164;4.488;2022-07-01T09:11:35;4.82;;;3.35;;
40745;SDS011;26454;51.164;4.488;2022-07-01T09:14:21;6.78;;;2.72;;
40745;SDS011;26454;51.164;4.488;2022-07-01T09:16:54;6.43;;;3.30;;
40745;SDS011;26454;51.164;4.488;2022-07-01T09:19:23;4.53;;;3.38;;
40745;SDS011;26454;51.164;4.488;2022-07-01T09:21:52;3.40;;;3.10;;
40745;SDS011;26454;51.164;4.488;2022-07-01T09:24:23;5.32;;;3.60;;
40745;SDS011;26454;51.164;4.488;2022-07-01T09:26:54;4.88;;;2.92;;
40745;SDS011;26454;51.164;4.488;2022-07-01T09:29:26;4.70;;;2.00;;
40745;SDS011;26454;51.164;4.488;2022-07-01T09:31:53;5.82;;;2.90;;
40745;SDS011;26454;51.164;4.488;2022-07-01T09:34:19;4.40;;;2.60;;
40745;SDS011;26454;51.164;4.488;2022-07-01T09:36:53;5.78;;;3.00;;
40745;SDS011;26454;51.164;4.488;2022-07-01T09:39:20;5.30;;;2.75;;
40745;SDS011;26454;51.164;4.488;2022-07-01T09:41:54;3.95;;;3.00;;
40745;SDS011;26454;51.164;4.488;2022-07-01T09:44:29;5.68;;;2.67;;
40745;SDS011;26454;51.164;4.488;2022-07-01T09:47:18;5.18;;;2.45;;
40745;SDS011;26454;51.164;4.488;2022-07-01T09:50:03;7.43;;;3.40;;
40745;SDS011;26454;51.164;4.488;2022-07-01T09:52:30;5.97;;;2.88;;
40745;SDS011;26454;51.164;4.488;2022-07-01T09:54:57;6.00;;;2.55;;
40745;SDS011;26454;51.164;4.488;2022-07-01T09:57:23;2.92;;;2.72;;
40745;SDS011;26454;51.164;4.488;2022-07-01T09:59:50;4.43;;;3.40;;
40745;SDS011;26454;51.164;4.488;2022-07-01T10:02:17;4.45;;;2.70;;
40745;SDS011;26454;51.164;4.488;2022-07-01T10:04:46;3.72;;;2.35;;
40745;SDS011;26454;51.164;4.488;2022-07-01T10:10:23;3.40;;;3.00;;
40745;SDS011;26454;51.164;4.488;2022-07-01T10:13:02;7.18;;;3.05;;
40745;SDS011;26454;51.164;4.488;2022-07-01T10:17:59;5.63;;;2.83;;
40745;SDS011;26454;51.164;4.488;2022-07-01T10:20:30;4.65;;;2.90;;
40745;SDS011;26454;51.164;4.488;2022-07-01T10:23:00;6.47;;;2.90;;
40745;SDS011;26454;51.164;4.488;2022-07-01T10:25:39;6.32;;;3.05;;
40745;SDS011;26454;51.164;4.488;2022-07-01T10:28:17;3.80;;;3.35;;
40745;SDS011;26454;51.164;4.488;2022-07-01T10:30:51;4.05;;;2.33;;
40745;SDS011;26454;51.164;4.488;2022-07-01T10:36:06;7.38;;;2.78;;
40745;SDS011;26454;51.164;4.488;2022-07-01T10:38:34;9.18;;;2.05;;
40745;SDS011;26454;51.164;4.488;2022-07-01T10:41:23;4.20;;;1.63;;
40745;SDS011;26454;51.164;4.488;2022-07-01T10:43:53;6.30;;;2.38;;
40745;SDS011;26454;51.164;4.488;2022-07-01T10:49:11;5.63;;;2.00;;
40745;SDS011;26454;51.164;4.488;2022-07-01T10:51:42;3.47;;;1.80;;
40745;SDS011;26454;51.164;4.488;2022-07-01T10:54:12;5.45;;;1.55;;
40745;SDS011;26454;51.164;4.488;2022-07-01T10:57:04;4.22;;;1.73;;
40745;SDS011;26454;51.164;4.488;2022-07-01T10:59:49;3.67;;;1.30;;
40745;SDS011;26454;51.164;4.488;2022-07-01T11:02:19;4.22;;;1.50;;
40745;SDS011;26454;51.164;4.488;2022-07-01T11:04:51;9.82;;;1.73;;
40745;SDS011;26454;51.164;4.488;2022-07-01T11:07:18;3.90;;;1.55;;
40745;SDS011;26454;51.164;4.488;2022-07-01T11:09:44;6.38;;;1.77;;
40745;SDS011;26454;51.164;4.488;2022-07-01T11:12:10;4.00;;;1.55;;
40745;SDS011;26454;51.164;4.488;2022-07-01T11:14:40;5.60;;;1.30;;
40745;SDS011;26454;51.164;4.488;2022-07-01T11:17:07;3.08;;;1.50;;
40745;SDS011;26454;51.164;4.488;2022-07-01T11:19:34;5.18;;;1.65;;
40745;SDS011;26454;51.164;4.488;2022-07-01T11:22:00;2.70;;;1.25;;
40745;SDS011;26454;51.164;4.488;2022-07-01T11:24:27;5.60;;;1.65;;
40745;SDS011;26454;51.164;4.488;2022-07-01T11:26:55;1.58;;;1.20;;
40745;SDS011;26454;51.164;4.488;2022-07-01T11:29:27;11.88;;;1.65;;
40745;SDS011;26454;51.164;4.488;2022-07-01T11:31:53;6.20;;;1.48;;
40745;SDS011;26454;51.164;4.488;2022-07-01T11:34:22;3.67;;;2.05;;
40745;SDS011;26454;51.164;4.488;2022-07-01T11:36:48;9.15;;;1.85;;
40745;SDS011;26454;51.164;4.488;2022-07-01T11:39:27;3.63;;;1.60;;
40745;SDS011;26454;51.164;4.488;2022-07-01T11:41:59;4.65;;;1.55;;
40745;SDS011;26454;51.164;4.488;2022-07-01T11:46:54;2.75;;;1.30;;
40745;SDS011;26454;51.164;4.488;2022-07-01T11:49:20;3.03;;;1.20;;
40745;SDS011;26454;51.164;4.488;2022-07-01T11:54:30;3.22;;;1.45;;
40745;SDS011;26454;51.164;4.488;2022-07-01T11:59:43;1.98;;;1.88;;
40745;SDS011;26454;51.164;4.488;2022-07-01T12:02:11;2.75;;;1.02;;
40745;SDS011;26454;51.164;4.488;2022-07-01T12:04:38;4.18;;;1.70;;
40745;SDS011;26454;51.164;4.488;2022-07-01T12:07:05;4.70;;;1.38;;
40745;SDS011;26454;51.164;4.488;2022-07-01T12:09:31;1.95;;;1.00;;
40745;SDS011;26454;51.164;4.488;2022-07-01T12:11:58;3.45;;;1.27;;
40745;SDS011;26454;51.164;4.488;2022-07-01T12:14:26;2.80;;;0.90;;
40745;SDS011;26454;51.164;4.488;2022-07-01T12:16:56;2.08;;;1.20;;
40745;SDS011;26454;51.164;4.488;2022-07-01T12:19:38;1.92;;;0.88;;
40745;SDS011;26454;51.164;4.488;2022-07-01T12:22:10;1.23;;;0.63;;
40745;SDS011;26454;51.164;4.488;2022-07-01T12:24:36;2.22;;;1.10;;
40745;SDS011;26454;51.164;4.488;2022-07-01T12:27:03;4.00;;;0.68;;
40745;SDS011;26454;51.164;4.488;2022-07-01T12:29:31;5.68;;;1.05;;
40745;SDS011;26454;51.164;4.488;2022-07-01T12:32:23;3.85;;;1.60;;
40745;SDS011;26454;51.164;4.488;2022-07-01T12:34:55;2.35;;;1.00;;
40745;SDS011;26454;51.164;4.488;2022-07-01T12:37:27;2.03;;;0.80;;
40745;SDS011;26454;51.164;4.488;2022-07-01T12:39:56;1.33;;;0.70;;
40745;SDS011;26454;51.164;4.488;2022-07-01T12:42:30;3.17;;;0.80;;
40745;SDS011;26454;51.164;4.488;2022-07-01T12:45:00;2.45;;;0.75;;
40745;SDS011;26454;51.164;4.488;2022-07-01T12:47:29;0.98;;;0.63;;
40745;SDS011;26454;51.164;4.488;2022-07-01T12:50:08;4.70;;;0.98;;
40745;SDS011;26454;51.164;4.488;2022-07-01T12:52:55;2.75;;;0.88;;
40745;SDS011;26454;51.164;4.488;2022-07-01T12:55:26;7.07;;;1.85;;
40745;SDS011;26454;51.164;4.488;2022-07-01T12:57:54;2.92;;;0.90;;
40745;SDS011;26454;51.164;4.488;2022-07-01T13:00:22;3.20;;;0.70;;
40745;SDS011;26454;51.164;4.488;2022-07-01T13:02:51;2.70;;;1.05;;
40745;SDS011;26454;51.164;4.488;2022-07-01T13:05:22;1.02;;;0.80;;
40745;SDS011;26454;51.164;4.488;2022-07-01T13:07:48;3.13;;;1.40;;
40745;SDS011;26454;51.164;4.488;2022-07-01T13:10:16;2.05;;;0.80;;
40745;SDS011;26454;51.164;4.488;2022-07-01T13:12:43;2.28;;;0.93;;
40745;SDS011;26454;51.164;4.488;2022-07-01T13:15:10;2.25;;;1.10;;
40745;SDS011;26454;51.164;4.488;2022-07-01T13:17:36;3.58;;;1.13;;
40745;SDS011;26454;51.164;4.488;2022-07-01T13:20:03;1.45;;;1.30;;
40745;SDS011;26454;51.164;4.488;2022-07-01T13:22:29;5.38;;;2.10;;
40745;SDS011;26454;51.164;4.488;2022-07-01T13:24:55;3.08;;;1.67;;
40745;SDS011;26454;51.164;4.488;2022-07-01T13:27:21;5.60;;;1.50;;
40745;SDS011;26454;51.164;4.488;2022-07-01T13:29:50;3.83;;;1.30;;
40745;SDS011;26454;51.164;4.488;2022-07-01T13:32:16;4.60;;;1.60;;
40745;SDS011;26454;51.164;4.488;2022-07-01T13:34:42;4.03;;;1.88;;
40745;SDS011;26454;51.164;4.488;2022-07-01T13:37:08;3.63;;;1.60;;
40745;SDS011;26454;51.164;4.488;2022-07-01T13:39:34;5.15;;;1.90;;
40745;SDS011;26454;51.164;4.488;2022-07-01T13:42:03;6.30;;;1.83;;
40745;SDS011;26454;51.164;4.488;2022-07-01T13:44:29;5.05;;;2.10;;
40745;SDS011;26454;51.164;4.488;2022-07-01T13:46:55;4.93;;;2.22;;
40745;SDS011;26454;51.164;4.488;2022-07-01T13:49:21;8.85;;;3.20;;
40745;SDS011;26454;51.164;4.488;2022-07-01T13:51:46;4.15;;;3.55;;
40745;SDS011;26454;51.164;4.488;2022-07-01T13:54:12;5.75;;;2.50;;
40745;SDS011;26454;51.164;4.488;2022-07-01T13:56:38;5.30;;;3.88;;
40745;SDS011;26454;51.164;4.488;2022-07-01T13:59:03;3.80;;;3.50;;
40745;SDS011;26454;51.164;4.488;2022-07-01T14:01:29;4.57;;;4.18;;
40745;SDS011;26454;51.164;4.488;2022-07-01T14:03:56;4.88;;;3.78;;
40745;SDS011;26454;51.164;4.488;2022-07-01T14:06:22;4.28;;;3.30;;
40745;SDS011;26454;51.164;4.488;2022-07-01T14:08:48;4.95;;;3.47;;
40745;SDS011;26454;51.164;4.488;2022-07-01T14:11:14;4.82;;;3.22;;
40745;SDS011;26454;51.164;4.488;2022-07-01T14:13:40;4.47;;;3.05;;
40745;SDS011;26454;51.164;4.488;2022-07-01T14:16:06;5.53;;;3.15;;
40745;SDS011;26454;51.164;4.488;2022-07-01T14:18:33;4.80;;;2.95;;
40745;SDS011;26454;51.164;4.488;2022-07-01T14:21:00;5.30;;;2.65;;
40745;SDS011;26454;51.164;4.488;2022-07-01T14:23:26;4.40;;;2.35;;
40745;SDS011;26454;51.164;4.488;2022-07-01T14:25:52;6.32;;;2.40;;
40745;SDS011;26454;51.164;4.488;2022-07-01T14:28:18;2.75;;;1.98;;
40745;SDS011;26454;51.164;4.488;2022-07-01T14:30:44;2.88;;;1.90;;
40745;SDS011;26454;51.164;4.488;2022-07-01T14:33:10;2.88;;;1.33;;
40745;SDS011;26454;51.164;4.488;2022-07-01T14:35:37;6.55;;;1.60;;
40745;SDS011;26454;51.164;4.488;2022-07-01T14:38:02;2.15;;;1.08;;
40745;SDS011;26454;51.164;4.488;2022-07-01T14:40:30;4.18;;;1.40;;
40745;SDS011;26454;51.164;4.488;2022-07-01T14:42:56;2.63;;;1.30;;
40745;SDS011;26454;51.164;4.488;2022-07-01T14:45:22;2.42;;;1.27;;
40745;SDS011;26454;51.164;4.488;2022-07-01T14:47:48;3.72;;;1.38;;
40745;SDS011;26454;51.164;4.488;2022-07-01T14:50:14;1.70;;;0.80;;
40745;SDS011;26454;51.164;4.488;2022-07-01T14:52:41;4.57;;;1.05;;
40745;SDS011;26454;51.164;4.488;2022-07-01T14:55:07;3.13;;;1.10;;
40745;SDS011;26454;51.164;4.488;2022-07-01T14:57:34;5.70;;;0.80;;
40745;SDS011;26454;51.164;4.488;2022-07-01T15:00:00;4.47;;;1.65;;
40745;SDS011;26454;51.164;4.488;2022-07-01T15:02:27;5.18;;;0.90;;
40745;SDS011;26454;51.164;4.488;2022-07-01T15:04:53;4.00;;;0.95;;